createdAt,value
2018-07-13T00:01:43.562Z,22.52
2018-07-13T00:04:11.354Z,22.53
2018-07-13T00:06:39.321Z,22.52
2018-07-13T00:09:08.804Z,22.52
2018-07-13T00:11:36.832Z,22.52
2018-07-13T00:14:13.457Z,22.52
2018-07-13T00:16:41.977Z,22.51
2018-07-13T00:19:09.675Z,22.50
2018-07-13T00:21:37.775Z,22.50
2018-07-13T00:24:06.308Z,22.49
2018-07-13T00:26:34.061Z,22.48
2018-07-13T00:29:01.853Z,22.47
2018-07-13T00:31:29.556Z,22.48
2018-07-13T00:33:58.599Z,22.47
2018-07-13T00:36:26.542Z,22.47
2018-07-13T00:38:54.986Z,22.45
2018-07-13T00:41:23.149Z,22.42
2018-07-13T00:43:51.366Z,22.44
2018-07-13T00:46:19.586Z,22.43
2018-07-13T00:48:47.626Z,22.44
2018-07-13T00:51:15.586Z,22.43
2018-07-13T00:53:44.181Z,22.41
2018-07-13T00:56:12.231Z,22.41
2018-07-13T00:58:40.721Z,22.40
2018-07-13T01:01:08.399Z,22.38
2018-07-13T01:03:36.047Z,22.36
2018-07-13T01:06:04.201Z,22.35
2018-07-13T01:08:32.157Z,22.33
2018-07-13T01:11:00.061Z,22.32
2018-07-13T01:13:27.771Z,22.32
2018-07-13T01:15:55.921Z,22.30
2018-07-13T01:18:24.101Z,22.28
2018-07-13T01:20:51.882Z,22.29
2018-07-13T01:23:19.797Z,22.27
2018-07-13T01:25:47.794Z,22.25
2018-07-13T01:28:15.950Z,22.24
2018-07-13T01:30:43.662Z,22.23
2018-07-13T01:33:11.658Z,22.22
2018-07-13T01:35:39.346Z,22.22
2018-07-13T01:38:07.069Z,22.21
2018-07-13T01:40:34.821Z,22.21
2018-07-13T01:43:02.789Z,22.22
2018-07-13T01:45:30.446Z,22.22
2018-07-13T01:47:58.109Z,22.20
2018-07-13T01:50:25.800Z,22.22
2018-07-13T01:52:53.498Z,22.21
2018-07-13T01:55:21.555Z,22.20
2018-07-13T01:57:49.222Z,22.19
2018-07-13T02:00:17.138Z,22.19
2018-07-13T02:02:45.128Z,22.17
2018-07-13T02:05:12.801Z,22.17
2018-07-13T02:07:40.795Z,22.17
2018-07-13T02:10:08.572Z,22.17
2018-07-13T02:12:36.212Z,22.17
2018-07-13T02:15:04.057Z,22.15
2018-07-13T02:17:31.782Z,22.15
2018-07-13T02:19:59.797Z,22.15
2018-07-13T02:22:27.974Z,22.15
2018-07-13T02:24:56.077Z,22.15
2018-07-13T02:27:23.722Z,22.14
2018-07-13T02:29:51.443Z,22.12
2018-07-13T02:32:19.413Z,22.14
2018-07-13T02:34:47.126Z,22.12
2018-07-13T02:37:15.074Z,22.11
2018-07-13T02:39:42.771Z,22.14
2018-07-13T02:42:10.717Z,22.14
2018-07-13T02:44:39.246Z,22.15
2018-07-13T02:47:07.839Z,22.15
2018-07-13T02:49:36.079Z,22.15
2018-07-13T02:52:03.746Z,22.17
2018-07-13T02:54:31.777Z,22.16
2018-07-13T02:56:59.434Z,22.16
2018-07-13T02:59:27.706Z,22.17
2018-07-13T03:01:55.420Z,22.16
2018-07-13T03:04:23.158Z,22.16
2018-07-13T03:06:51.038Z,22.17
2018-07-13T03:09:18.967Z,22.15
2018-07-13T03:11:46.670Z,22.15
2018-07-13T03:14:14.553Z,22.15
2018-07-13T03:16:42.614Z,22.14
2018-07-13T03:19:10.301Z,22.14
2018-07-13T03:21:38.241Z,22.12
2018-07-13T03:24:05.954Z,22.12
2018-07-13T03:26:33.645Z,22.13
2018-07-13T03:29:02.019Z,22.13
2018-07-13T03:31:29.686Z,22.12
2018-07-13T03:33:57.341Z,22.11
2018-07-13T03:36:25.099Z,22.10
2018-07-13T03:38:52.803Z,22.10
2018-07-13T03:41:20.843Z,22.10
2018-07-13T03:43:48.557Z,22.10
2018-07-13T03:46:16.834Z,22.09
2018-07-13T03:48:44.791Z,22.09
2018-07-13T03:51:12.461Z,22.11
2018-07-13T03:53:40.179Z,22.11
2018-07-13T03:56:08.503Z,22.12
2018-07-13T03:58:36.775Z,22.14
2018-07-13T04:01:04.456Z,22.14
2018-07-13T04:03:32.461Z,22.12
2018-07-13T04:06:00.529Z,22.12
2018-07-13T04:08:28.166Z,22.17
2018-07-13T04:10:56.148Z,22.23
2018-07-13T04:13:24.018Z,22.22
2018-07-13T04:15:51.958Z,22.23
2018-07-13T04:18:26.466Z,22.23
2018-07-13T04:20:54.222Z,22.23
2018-07-13T04:23:23.027Z,22.24
2018-07-13T04:25:50.958Z,22.25
2018-07-13T04:28:19.687Z,22.28
2018-07-13T04:30:47.435Z,22.28
2018-07-13T04:33:15.151Z,22.26
2018-07-13T04:35:43.321Z,22.25
2018-07-13T04:38:11.356Z,22.26
2018-07-13T04:40:39.040Z,22.25
2018-07-13T04:43:06.873Z,22.25
2018-07-13T04:45:34.560Z,22.25
2018-07-13T04:48:02.409Z,22.23
2018-07-13T04:50:30.546Z,22.23
2018-07-13T04:52:58.240Z,22.23
2018-07-13T04:55:26.074Z,22.21
2018-07-13T04:57:53.867Z,22.22
2018-07-13T05:00:21.940Z,22.21
2018-07-13T05:02:50.254Z,22.21
2018-07-13T05:05:18.578Z,22.22
2018-07-13T05:07:46.561Z,22.21
2018-07-13T05:10:14.245Z,22.20
2018-07-13T05:12:41.927Z,22.20
2018-07-13T05:15:09.665Z,22.22
2018-07-13T05:17:38.097Z,22.24
2018-07-13T05:20:06.147Z,22.21
2018-07-13T05:22:35.224Z,22.21
2018-07-13T05:25:03.118Z,22.22
2018-07-13T05:27:30.865Z,22.25
2018-07-13T05:29:59.707Z,22.28
2018-07-13T05:32:27.375Z,22.28
2018-07-13T05:34:55.468Z,22.29
2018-07-13T05:37:23.479Z,22.29
2018-07-13T05:39:51.162Z,22.29
2018-07-13T05:42:19.252Z,22.33
2018-07-13T05:44:47.128Z,22.36
2018-07-13T05:47:15.350Z,22.36
2018-07-13T05:49:43.064Z,22.38
2018-07-13T05:52:10.826Z,22.36
2018-07-13T05:54:38.534Z,22.36
2018-07-13T05:57:06.469Z,22.34
2018-07-13T05:59:34.176Z,22.34
2018-07-13T06:02:01.833Z,22.34
2018-07-13T06:04:29.929Z,22.34
2018-07-13T06:06:57.618Z,22.34
2018-07-13T06:09:25.324Z,22.35
2018-07-13T06:11:53.134Z,22.35
2018-07-13T06:14:20.754Z,22.33
2018-07-13T06:16:48.467Z,22.35
2018-07-13T06:19:16.130Z,22.35
2018-07-13T06:21:44.303Z,22.34
2018-07-13T06:24:12.299Z,22.37
2018-07-13T06:26:40.115Z,22.37
2018-07-13T06:29:07.853Z,22.37
2018-07-13T06:31:35.876Z,22.38
2018-07-13T06:34:03.686Z,22.38
2018-07-13T06:36:31.406Z,22.38
2018-07-13T06:38:59.123Z,22.39
2018-07-13T06:41:26.877Z,22.40
2018-07-13T06:43:54.578Z,22.42
2018-07-13T06:46:22.257Z,22.42
2018-07-13T06:48:49.946Z,22.43
2018-07-13T06:51:17.706Z,22.43
2018-07-13T06:53:45.443Z,22.44
2018-07-13T06:56:13.096Z,22.44
2018-07-13T06:58:51.944Z,22.44
2018-07-13T07:01:19.680Z,22.47
2018-07-13T07:04:54.061Z,22.50
2018-07-13T07:07:23.784Z,22.52
2018-07-13T07:09:55.770Z,22.52
2018-07-13T07:12:50.420Z,22.54
2018-07-13T07:15:18.105Z,22.55
2018-07-13T07:17:46.190Z,22.57
2018-07-13T07:20:14.960Z,22.58
2018-07-13T07:22:43.251Z,22.40
2018-07-13T07:25:10.936Z,22.60
2018-07-13T07:27:38.952Z,22.61
2018-07-13T07:30:06.909Z,22.66
2018-07-13T07:32:35.121Z,22.68
2018-07-13T07:35:03.159Z,22.72
2018-07-13T07:37:30.858Z,22.73
2018-07-13T07:39:58.558Z,22.80
2018-07-13T07:42:26.311Z,22.82
2018-07-13T07:44:54.058Z,22.82
2018-07-13T07:47:21.777Z,22.88
2018-07-13T07:49:49.594Z,22.97
2018-07-13T07:52:17.261Z,22.97
2018-07-13T07:54:45.203Z,23.00
2018-07-13T07:57:12.945Z,23.02
2018-07-13T07:59:40.603Z,22.97
2018-07-13T08:02:08.511Z,23.02
2018-07-13T08:04:36.743Z,23.04
2018-07-13T08:07:04.791Z,23.05
2018-07-13T08:09:32.186Z,23.08
2018-07-13T08:11:59.922Z,23.06
2018-07-13T08:14:27.657Z,23.07
2018-07-13T08:16:55.317Z,23.05
2018-07-13T08:19:23.249Z,23.06
2018-07-13T08:21:51.085Z,23.12
2018-07-13T08:24:21.631Z,23.12
2018-07-13T08:26:51.959Z,23.11
2018-07-13T08:29:21.789Z,23.13
2018-07-13T08:31:49.480Z,23.13
2018-07-13T08:34:17.496Z,23.14
2018-07-13T08:36:45.424Z,23.15
2018-07-13T08:39:13.130Z,23.22
2018-07-13T08:41:41.024Z,23.24
2018-07-13T08:44:08.734Z,23.23
2018-07-13T08:46:36.754Z,23.28
2018-07-13T08:49:04.753Z,23.21
2018-07-13T08:51:32.443Z,23.29
2018-07-13T08:54:00.420Z,23.32
2018-07-13T08:56:28.162Z,23.35
2018-07-13T08:58:55.840Z,23.30
2018-07-13T09:01:23.574Z,23.30
2018-07-13T09:03:51.264Z,23.27
2018-07-13T09:06:19.249Z,23.33
2018-07-13T09:08:47.095Z,23.38
2018-07-13T09:11:14.744Z,23.37
2018-07-13T09:13:42.736Z,23.41
2018-07-13T09:16:10.773Z,23.45
2018-07-13T09:18:38.432Z,23.46
2018-07-13T09:21:06.114Z,23.41
2018-07-13T09:23:34.077Z,23.37
2018-07-13T09:26:01.975Z,23.37
2018-07-13T09:28:29.623Z,23.39
2018-07-13T09:30:57.511Z,23.40
2018-07-13T09:33:25.313Z,23.42
2018-07-13T09:35:53.055Z,23.43
2018-07-13T09:38:20.724Z,23.41
2018-07-13T09:40:48.401Z,23.42
2018-07-13T09:43:16.717Z,23.35
2018-07-13T09:45:44.425Z,23.35
2018-07-13T09:48:12.314Z,23.31
2018-07-13T09:50:40.287Z,23.35
2018-07-13T09:53:07.984Z,23.37
2018-07-13T09:55:36.164Z,23.39
2018-07-13T09:58:03.869Z,23.37
2018-07-13T10:00:37.006Z,23.38
2018-07-13T10:03:05.604Z,23.46
2018-07-13T10:05:33.508Z,23.38
2018-07-13T10:08:01.443Z,23.32
2018-07-13T10:10:29.112Z,23.28
2018-07-13T10:12:57.158Z,23.27
2018-07-13T10:15:24.835Z,23.25
2018-07-13T10:17:52.541Z,23.22
2018-07-13T10:20:20.228Z,23.23
2018-07-13T10:22:47.898Z,23.29
2018-07-13T10:25:15.566Z,23.28
2018-07-13T10:27:43.221Z,23.23
2018-07-13T10:30:12.187Z,23.24
2018-07-13T10:32:41.032Z,23.24
2018-07-13T10:35:09.310Z,23.27
2018-07-13T10:37:37.146Z,23.27
2018-07-13T10:40:04.837Z,23.26
2018-07-13T10:42:32.514Z,23.32
2018-07-13T10:45:00.177Z,23.29
2018-07-13T10:47:27.837Z,23.35
2018-07-13T10:49:56.280Z,23.35
2018-07-13T10:52:24.162Z,23.31
2018-07-13T10:54:51.839Z,23.31
2018-07-13T10:57:19.553Z,23.28
2018-07-13T10:59:47.495Z,23.27
2018-07-13T11:02:15.142Z,23.31
2018-07-13T11:04:43.044Z,23.39
2018-07-13T11:07:11.310Z,23.46
2018-07-13T11:09:39.350Z,23.42
2018-07-13T11:12:07.302Z,23.43
2018-07-13T11:14:34.980Z,23.44
2018-07-13T11:17:02.621Z,23.42
2018-07-13T11:19:30.614Z,23.49
2018-07-13T11:21:58.501Z,23.45
2018-07-13T11:24:26.267Z,23.42
2018-07-13T11:26:53.945Z,23.44
2018-07-13T11:29:21.590Z,23.48
2018-07-13T11:31:49.273Z,23.51
2018-07-13T11:34:17.628Z,23.54
2018-07-13T11:36:45.429Z,23.59
2018-07-13T11:39:13.310Z,23.58
2018-07-13T11:41:41.007Z,23.60
2018-07-13T11:44:08.973Z,23.60
2018-07-13T11:46:37.158Z,23.63
2018-07-13T11:49:04.846Z,23.64
2018-07-13T11:51:32.732Z,23.64
2018-07-13T11:54:00.801Z,23.64
2018-07-13T11:56:28.465Z,23.56
2018-07-13T11:58:56.503Z,23.61
2018-07-13T12:01:24.192Z,23.66
2018-07-13T12:03:51.883Z,23.68
2018-07-13T12:06:20.019Z,23.70
2018-07-13T12:08:47.914Z,23.72
2018-07-13T12:11:15.936Z,23.72
2018-07-13T12:13:43.772Z,23.72
2018-07-13T12:16:11.641Z,23.76
2018-07-13T12:18:39.591Z,23.78
2018-07-13T12:21:07.841Z,23.83
2018-07-13T12:23:35.498Z,23.31
2018-07-13T12:26:03.153Z,23.86
2018-07-13T12:28:30.801Z,23.94
2018-07-13T12:30:58.867Z,24.10
2018-07-13T12:33:27.187Z,24.20
2018-07-13T12:35:55.205Z,24.18
2018-07-13T12:38:23.281Z,24.16
2018-07-13T12:40:50.942Z,24.16
2018-07-13T12:43:18.878Z,24.16
2018-07-13T12:45:46.830Z,24.21
2018-07-13T12:48:14.763Z,24.15
2018-07-13T12:50:42.667Z,24.17
2018-07-13T12:53:10.354Z,24.22
2018-07-13T12:55:38.014Z,24.28
2018-07-13T12:58:05.972Z,24.29
2018-07-13T13:00:34.363Z,24.32
2018-07-13T13:03:02.378Z,24.34
2018-07-13T13:05:30.109Z,24.41
2018-07-13T13:07:57.991Z,24.44
2018-07-13T13:10:25.613Z,24.48
2018-07-13T13:12:53.379Z,24.48
2018-07-13T13:15:21.041Z,24.51
2018-07-13T13:17:48.758Z,24.56
2018-07-13T13:20:17.070Z,24.56
2018-07-13T13:22:44.781Z,24.60
2018-07-13T13:25:12.762Z,24.66
2018-07-13T13:27:40.882Z,24.71
2018-07-13T13:30:08.573Z,24.73
2018-07-13T13:32:36.476Z,24.75
2018-07-13T13:35:04.187Z,24.72
2018-07-13T13:37:31.871Z,24.74
2018-07-13T13:39:59.528Z,24.78
2018-07-13T13:42:27.533Z,24.74
2018-07-13T13:44:55.179Z,24.61
2018-07-13T13:47:22.837Z,24.80
2018-07-13T13:49:50.575Z,24.83
2018-07-13T13:52:19.085Z,24.87
2018-07-13T13:54:47.079Z,24.83
2018-07-13T13:57:15.158Z,24.83
2018-07-13T13:59:43.148Z,24.81
2018-07-13T14:02:11.106Z,24.76
2018-07-13T14:04:39.070Z,24.78
2018-07-13T14:07:07.045Z,24.86
2018-07-13T14:09:34.728Z,24.92
2018-07-13T14:12:02.663Z,24.90
2018-07-13T14:14:31.179Z,24.80
2018-07-13T14:16:59.276Z,24.71
2018-07-13T14:19:26.937Z,24.65
2018-07-13T14:21:54.977Z,24.64
2018-07-13T14:24:22.651Z,24.70
2018-07-13T14:26:50.317Z,24.68
2018-07-13T14:29:18.592Z,24.72
2018-07-13T14:31:46.257Z,24.72
2018-07-13T14:34:14.189Z,24.71
2018-07-13T14:36:41.829Z,24.75
2018-07-13T14:39:10.218Z,25.02
2018-07-13T14:41:37.915Z,25.37
2018-07-13T14:44:05.661Z,25.34
2018-07-13T14:46:33.437Z,25.23
2018-07-13T14:49:01.149Z,25.28
2018-07-13T14:51:28.773Z,25.56
2018-07-13T14:53:56.409Z,25.76
2018-07-13T14:56:24.137Z,26.69
2018-07-13T14:58:52.285Z,28.29
2018-07-13T15:01:20.232Z,27.95
2018-07-13T15:03:47.884Z,27.43
2018-07-13T15:06:15.762Z,26.87
2018-07-13T15:08:43.926Z,26.51
2018-07-13T15:11:11.844Z,26.08
2018-07-13T15:13:40.621Z,25.82
2018-07-13T15:16:08.282Z,25.64
2018-07-13T15:18:35.964Z,25.48
2018-07-13T15:21:03.637Z,25.31
2018-07-13T15:23:31.584Z,25.30
2018-07-13T15:26:00.083Z,25.38
2018-07-13T15:28:28.218Z,25.49
2018-07-13T15:30:55.898Z,25.29
2018-07-13T15:33:24.500Z,25.20
2018-07-13T15:35:52.136Z,25.30
2018-07-13T15:38:19.912Z,25.23
2018-07-13T15:40:47.904Z,25.10
2018-07-13T15:43:15.595Z,25.11
2018-07-13T15:45:43.356Z,25.11
2018-07-13T15:48:11.025Z,25.02
2018-07-13T15:50:38.659Z,24.97
2018-07-13T15:53:06.706Z,24.90
2018-07-13T15:55:40.286Z,24.79
2018-07-13T15:58:08.830Z,24.73
2018-07-13T16:00:36.892Z,24.81
2018-07-13T16:03:05.392Z,24.89
2018-07-13T16:05:33.077Z,24.83
2018-07-13T16:08:01.529Z,24.72
2018-07-13T16:10:29.231Z,24.67
2018-07-13T16:12:57.176Z,24.58
2018-07-13T16:15:25.412Z,24.49
2018-07-13T16:17:53.106Z,24.44
2018-07-13T16:20:21.021Z,24.42
2018-07-13T16:22:49.605Z,24.43
2018-07-13T16:25:17.225Z,24.41
2018-07-13T16:27:44.940Z,24.33
2018-07-13T16:30:12.634Z,24.26
2018-07-13T16:32:40.335Z,24.19
2018-07-13T16:35:08.872Z,24.15
2018-07-13T16:37:36.539Z,24.10
2018-07-13T16:40:04.387Z,24.04
2018-07-13T16:42:32.358Z,24.00
2018-07-13T16:45:00.059Z,23.95
2018-07-13T16:47:27.689Z,23.90
2018-07-13T16:49:55.771Z,23.88
2018-07-13T16:52:23.550Z,23.89
2018-07-13T16:54:52.120Z,23.91
2018-07-13T16:57:19.855Z,23.91
2018-07-13T16:59:47.810Z,23.91
2018-07-13T17:02:15.523Z,23.95
2018-07-13T17:04:43.613Z,24.03
2018-07-13T17:07:11.639Z,24.21
2018-07-13T17:09:39.406Z,24.76
2018-07-13T17:12:07.367Z,24.74
2018-07-13T17:14:35.271Z,24.55
2018-07-13T17:17:02.982Z,24.41
2018-07-13T17:19:30.669Z,24.31
2018-07-13T17:21:58.344Z,24.27
2018-07-13T17:24:26.032Z,24.20
2018-07-13T17:26:53.674Z,24.14
2018-07-13T17:29:21.573Z,24.09
2018-07-13T17:31:49.259Z,24.03
2018-07-13T17:34:17.196Z,24.07
2018-07-13T17:36:44.848Z,24.02
2018-07-13T17:39:12.843Z,23.95
2018-07-13T17:41:40.530Z,23.90
2018-07-13T17:44:08.227Z,23.87
2018-07-13T17:46:35.911Z,23.87
2018-07-13T17:49:03.652Z,23.83
2018-07-13T17:51:31.668Z,23.78
2018-07-13T17:53:59.331Z,23.74
2018-07-13T17:56:27.712Z,23.70
2018-07-13T17:58:55.772Z,23.69
2018-07-13T18:01:23.434Z,23.66
2018-07-13T18:03:51.353Z,23.62
2018-07-13T18:06:19.341Z,23.61
2018-07-13T18:08:47.249Z,23.59
2018-07-13T18:11:15.224Z,23.55
2018-07-13T18:13:43.115Z,23.54
2018-07-13T18:16:10.800Z,23.50
2018-07-13T18:18:38.463Z,23.46
2018-07-13T18:21:06.425Z,23.43
2018-07-13T18:23:34.758Z,23.39
2018-07-13T18:26:02.422Z,23.37
2018-07-13T18:28:30.470Z,23.34
2018-07-13T18:30:58.170Z,23.31
2018-07-13T18:33:25.882Z,23.31
2018-07-13T18:35:53.891Z,23.29
2018-07-13T18:38:21.548Z,23.27
2018-07-13T18:40:49.453Z,23.26
2018-07-13T18:43:17.388Z,23.24
2018-07-13T18:45:45.540Z,23.22
2018-07-13T18:48:13.459Z,23.19
2018-07-13T18:50:41.365Z,23.18
2018-07-13T18:53:09.060Z,23.15
2018-07-13T18:55:36.715Z,23.14
2018-07-13T18:58:04.547Z,23.11
2018-07-13T19:00:32.241Z,23.08
2018-07-13T19:02:59.972Z,23.06
2018-07-13T19:05:27.963Z,23.04
2018-07-13T19:07:55.950Z,23.03
2018-07-13T19:10:23.686Z,23.02
2018-07-13T19:12:51.400Z,23.01
2018-07-13T19:15:19.834Z,22.99
2018-07-13T19:17:47.519Z,22.96
2018-07-13T19:20:15.197Z,22.96
2018-07-13T19:22:43.036Z,22.95
2018-07-13T19:25:10.867Z,22.93
2018-07-13T19:27:39.360Z,22.92
2018-07-13T19:30:07.503Z,22.92
2018-07-13T19:32:35.473Z,22.90
2018-07-13T19:35:03.632Z,22.88
2018-07-13T19:37:31.765Z,22.86
2018-07-13T19:39:59.537Z,22.85
2018-07-13T19:42:27.384Z,22.84
2018-07-13T19:44:55.090Z,22.83
2018-07-13T19:47:23.078Z,22.80
2018-07-13T19:49:51.565Z,22.81
2018-07-13T19:52:19.882Z,22.81
2018-07-13T19:54:47.580Z,22.80
2018-07-13T19:57:15.308Z,22.81
2018-07-13T19:59:43.281Z,22.80
2018-07-13T20:02:10.962Z,22.79
2018-07-13T20:04:39.105Z,22.79
2018-07-13T20:07:07.019Z,22.76
2018-07-13T20:09:34.729Z,22.76
2018-07-13T20:12:02.476Z,22.76
2018-07-13T20:14:30.626Z,22.74
2018-07-13T20:16:58.475Z,22.73
2018-07-13T20:19:26.065Z,22.72
2018-07-13T20:21:54.042Z,22.72
2018-07-13T20:24:21.742Z,22.71
2018-07-13T20:26:50.281Z,22.70
2018-07-13T20:29:18.377Z,22.69
2018-07-13T20:31:46.060Z,22.68
2018-07-13T20:34:14.350Z,22.53
2018-07-13T20:36:42.060Z,22.66
2018-07-13T20:39:09.957Z,22.66
2018-07-13T20:41:37.666Z,22.66
2018-07-13T20:44:05.585Z,22.65
2018-07-13T20:46:33.309Z,22.43
2018-07-13T20:49:01.117Z,22.64
2018-07-13T20:51:28.797Z,22.63
2018-07-13T20:53:56.473Z,22.64
2018-07-13T20:56:24.506Z,22.63
2018-07-13T20:58:52.159Z,22.62
2018-07-13T21:01:19.829Z,22.62
2018-07-13T21:03:47.555Z,22.62
2018-07-13T21:06:15.390Z,22.62
2018-07-13T21:08:43.097Z,22.61
2018-07-13T21:11:10.790Z,22.61
2018-07-13T21:13:38.538Z,22.61
2018-07-13T21:16:06.886Z,22.60
2018-07-13T21:18:35.289Z,22.59
2018-07-13T21:21:03.232Z,22.59
2018-07-13T21:23:30.918Z,22.58
2018-07-13T21:25:59.816Z,22.58
2018-07-13T21:28:27.470Z,22.36
2018-07-13T21:30:55.529Z,22.59
2018-07-13T21:33:25.289Z,22.58
2018-07-13T21:35:53.262Z,22.57
2018-07-13T21:38:20.934Z,22.57
2018-07-13T21:40:48.598Z,22.58
2018-07-13T21:43:16.721Z,22.56
2018-07-13T21:45:44.765Z,22.55
2018-07-13T21:48:12.388Z,22.56
2018-07-13T21:50:40.300Z,22.55
2018-07-13T21:53:08.024Z,22.56
2018-07-13T21:55:35.972Z,22.56
2018-07-13T21:58:03.946Z,22.54
2018-07-13T22:00:31.629Z,22.54
2018-07-13T22:02:59.615Z,22.55
2018-07-13T22:05:27.661Z,22.54
2018-07-13T22:07:55.334Z,21.91
2018-07-13T22:10:23.473Z,22.51
2018-07-13T22:12:51.134Z,22.51
2018-07-13T22:15:19.070Z,22.51
2018-07-13T22:17:46.775Z,22.51
2018-07-13T22:20:14.449Z,22.53
2018-07-13T22:22:42.174Z,22.51
2018-07-13T22:25:10.086Z,22.53
2018-07-13T22:27:38.670Z,22.52
2018-07-13T22:30:06.796Z,22.52
2018-07-13T22:32:35.131Z,22.52
2018-07-13T22:35:03.335Z,22.52
2018-07-13T22:37:31.365Z,22.51
2018-07-13T22:39:59.326Z,22.51
2018-07-13T22:42:27.017Z,22.50
2018-07-13T22:44:55.039Z,22.51
2018-07-13T22:47:23.216Z,22.49
2018-07-13T22:49:51.292Z,22.48
2018-07-13T22:52:18.981Z,22.48
2018-07-13T22:54:46.937Z,22.48
2018-07-13T22:57:14.670Z,22.47
2018-07-13T22:59:42.342Z,22.47
2018-07-13T23:02:09.986Z,22.46
2018-07-13T23:04:38.198Z,22.47
2018-07-13T23:07:06.329Z,22.49
2018-07-13T23:09:34.400Z,22.48
2018-07-13T23:12:02.050Z,22.49
2018-07-13T23:14:29.723Z,22.49
2018-07-13T23:16:57.413Z,22.32
2018-07-13T23:19:25.106Z,22.50
2018-07-13T23:21:53.341Z,22.50
2018-07-13T23:24:21.062Z,22.50
2018-07-13T23:26:48.996Z,22.48
2018-07-13T23:29:17.052Z,22.49
2018-07-13T23:31:44.720Z,22.49
2018-07-13T23:34:12.728Z,22.47
2018-07-13T23:36:40.622Z,22.47
2018-07-13T23:39:08.316Z,22.47
2018-07-13T23:41:36.292Z,22.46
2018-07-13T23:44:03.956Z,22.46
2018-07-13T23:46:32.230Z,22.47
2018-07-13T23:49:00.448Z,22.46
2018-07-13T23:51:28.189Z,22.46
2018-07-13T23:53:55.915Z,22.46
2018-07-13T23:56:23.949Z,22.47
2018-07-13T23:58:52.030Z,22.48
